North Anson, Maine
Current Conditions -  °F | °C
As of 6:55 AM on Thursday 23 Oct 2014 (Local Time) from KWVL Reporting Station
Overcast Overcast  
Wind Chill: 39°   Ceiling: 800
Heat Index: 46°   Visibility: 10mi
Dew Point: 41°   Wind: 17mph
Humidity: 81%   Direction: 20°NNE
Pressure: 29.91"   Gusts: 23mph
Location:  44.85°N, 69.9°W
Report Text: KWVL 231055Z 02015G20KT 10SM OVC008 08/05 A2991 RMK AO1 P0014
Loading
Personal Weather Stations






























Interactive Weather Map
Tropical Storm Tracking
New forecast layout! Learn more

10-Day Weather Forecast

Advertisements
Track Severe Weather on mobile